EDDS/STR METAR and TAF weather

Enter ICAO airport designator
Station Type Date Time Source
EDDS METAR 2023/02/05 14:20 UTC NOAA

EDDS 051420Z AUTO 30008KT 9999 -RA BKN008 BKN012 OVC018 03/02 Q1032 TEMPO 4000 RA


Station Type Date Time Source
EDDS Decoded METAR 2023/02/05 14:20 UTC NOAA

Stuttgart-Echterdingen, Germany (EDDS) 48-41N 009-13E 391M
Feb 05, 2023 - 09:20 AM EST / 2023.02.05 1420 UTC
Wind: from the WNW (300 degrees) at 9 MPH (8 KT):0
Visibility: greater than 7 mile(s):0
Sky conditions: overcast
Weather: light rain
Temperature: 37 F (3 C)
Dew Point: 35 F (2 C)
Relative Humidity: 93%
Pressure (altimeter): 30.47 in. Hg (1032 hPa)
ob: EDDS 051420Z AUTO 30008KT 9999 -RA BKN008 BKN012 OVC018 03/02 Q1032 TEMPO 4000 RA
cycle: 14

Station Type Date Time Source
EDDS TAF 2023/02/05 12:27 UTC NOAA

TAF EDDS 051100Z 0512/0612 VRB03KT 9999 BKN020
BECMG 0512/0515 BKN014
TEMPO 0512/0520 3000 -RA BKN008
BECMG 0518/0520 02005KT
TEMPO 0520/0606 3000 -SNRA BKN008 PROB40
TEMPO 0522/0606 1500 -SN BKN003

Example: see airport list